Time;durP1;ratioP1;P1;durP2;ratioP2;P2;SDS_P1;SDS_P2;PMS_P1;PMS_P2;Temp;Humidity;BMP_temperature;BMP_pressure;BME280_temperature;BME280_humidity;BME280_pressure;Samples;Min_cycle;Max_cycle;Signal;HPM_P1;HPM_P2
2023/12/09 00:00:49;;;;;;;78.88;42.20;;;2.30;99.90;;;;;;2097111;28;20020;-75
2023/12/09 00:01:49;;;;;;;71.05;40.60;;;2.30;99.90;;;;;;2098698;28;20678;-75
2023/12/09 00:02:50;;;;;;;69.28;38.35;;;2.40;99.90;;;;;;2097898;28;20072;-76
2023/12/09 00:03:51;;;;;;;74.35;40.28;;;2.40;99.90;;;;;;2097481;28;20105;-75
2023/12/09 00:04:51;;;;;;;75.28;41.30;;;2.40;99.90;;;;;;2098419;28;20079;-75
2023/12/09 00:05:52;;;;;;;70.30;40.05;;;2.40;99.90;;;;;;2097797;28;20043;-75
2023/12/09 00:06:52;;;;;;;68.20;38.88;;;2.40;99.90;;;;;;2094666;28;20501;-77
2023/12/09 00:07:53;;;;;;;81.15;43.70;;;2.40;99.90;;;;;;2098821;28;20020;-75
2023/12/09 00:08:53;;;;;;;78.80;43.58;;;2.30;99.90;;;;;;2096859;28;20130;-76
2023/12/09 00:09:54;;;;;;;75.88;41.75;;;2.30;99.90;;;;;;2092779;28;20503;-77
2023/12/09 00:10:54;;;;;;;78.93;42.50;;;2.40;99.90;;;;;;2096025;28;20502;-77
2023/12/09 00:11:55;;;;;;;69.97;39.45;;;2.40;99.90;;;;;;2095625;28;20024;-75
2023/12/09 00:12:55;;;;;;;73.13;39.67;;;2.40;99.90;;;;;;2088253;28;20033;-76
2023/12/09 00:13:59;;;;;;;89.00;45.85;;;2.40;99.90;;;;;;2096448;28;20116;-76
2023/12/09 00:14:59;;;;;;;90.10;45.78;;;2.40;99.90;;;;;;2096621;28;20024;-75
2023/12/09 00:16:00;;;;;;;79.53;42.60;;;2.40;99.90;;;;;;2092130;28;20596;-74
2023/12/09 00:17:01;;;;;;;72.80;39.53;;;2.40;99.90;;;;;;2084381;28;20048;-75
2023/12/09 00:18:01;;;;;;;64.70;37.75;;;2.40;99.90;;;;;;2088117;28;20033;-75
2023/12/09 00:19:02;;;;;;;72.47;39.70;;;2.40;99.90;;;;;;2094058;28;20033;-76
2023/12/09 00:20:05;;;;;;;86.70;45.85;;;2.40;99.90;;;;;;2099393;28;20402;-75
2023/12/09 00:21:05;;;;;;;91.75;46.42;;;2.40;99.90;;;;;;2089438;28;20064;-74
2023/12/09 00:22:06;;;;;;;80.03;43.22;;;2.40;99.90;;;;;;2090974;28;20025;-75
2023/12/09 00:23:07;;;;;;;71.28;39.65;;;2.40;99.90;;;;;;2091804;28;20052;-76
2023/12/09 00:24:08;;;;;;;75.88;41.15;;;2.40;99.90;;;;;;2091731;28;20043;-76
2023/12/09 00:25:09;;;;;;;83.55;43.35;;;2.40;99.90;;;;;;2094514;28;20142;-75
2023/12/09 00:26:10;;;;;;;93.22;47.03;;;2.40;99.90;;;;;;2083517;28;20136;-75
2023/12/09 00:27:10;;;;;;;80.25;43.10;;;2.40;99.90;;;;;;2092108;28;20036;-75
2023/12/09 00:28:11;;;;;;;82.13;43.88;;;2.40;99.90;;;;;;2087515;28;20111;-75
2023/12/09 00:29:11;;;;;;;85.55;45.45;;;2.40;99.90;;;;;;2083867;28;20033;-76
2023/12/09 00:30:12;;;;;;;83.00;44.50;;;2.40;99.90;;;;;;2089715;28;20036;-75
2023/12/09 00:31:13;;;;;;;74.63;41.47;;;2.40;99.90;;;;;;2095517;28;20035;-75
2023/12/09 00:32:14;;;;;;;71.03;38.40;;;2.40;99.90;;;;;;2091659;28;20039;-75
2023/12/09 00:33:15;;;;;;;64.75;37.33;;;2.30;99.90;;;;;;2093927;28;20409;-75
2023/12/09 00:34:15;;;;;;;68.35;37.70;;;2.40;99.90;;;;;;2096012;28;20498;-75
2023/12/09 00:35:16;;;;;;;77.65;40.47;;;2.40;99.90;;;;;;2095103;28;20033;-76
2023/12/09 00:36:16;;;;;;;93.95;46.33;;;2.40;99.90;;;;;;2093631;28;20102;-76
2023/12/09 00:37:17;;;;;;;81.10;42.47;;;2.40;99.90;;;;;;2095870;28;20028;-75
2023/12/09 00:38:18;;;;;;;69.68;38.00;;;2.40;99.90;;;;;;2094257;28;21018;-75
2023/12/09 00:39:18;;;;;;;67.88;37.65;;;2.40;99.90;;;;;;2093587;28;20025;-75
2023/12/09 00:40:19;;;;;;;78.35;41.72;;;2.40;99.90;;;;;;2093120;28;20484;-75
2023/12/09 00:41:19;;;;;;;91.75;46.35;;;2.40;99.90;;;;;;2096586;28;20040;-76
2023/12/09 00:42:20;;;;;;;97.00;47.10;;;2.40;99.90;;;;;;2095246;28;20436;-74
2023/12/09 00:43:20;;;;;;;79.82;42.08;;;2.40;99.90;;;;;;2093229;28;20469;-75
2023/12/09 00:44:21;;;;;;;79.05;41.80;;;2.40;99.90;;;;;;2092194;28;20510;-75
2023/12/09 00:45:21;;;;;;;73.72;39.35;;;2.40;99.90;;;;;;2096741;28;20029;-75
2023/12/09 00:46:22;;;;;;;69.38;38.13;;;2.40;99.90;;;;;;2095705;28;20447;-76
2023/12/09 00:47:22;;;;;;;75.38;40.05;;;2.40;99.90;;;;;;2092892;28;20032;-77
2023/12/09 00:48:23;;;;;;;82.03;42.80;;;2.40;99.90;;;;;;2095225;28;20020;-76
2023/12/09 00:49:23;;;;;;;84.88;43.47;;;2.40;99.90;;;;;;2095749;28;20115;-76
2023/12/09 00:50:24;;;;;;;79.63;41.90;;;2.50;99.90;;;;;;2091773;28;20051;-75
2023/12/09 00:51:24;;;;;;;70.93;38.13;;;2.50;99.90;;;;;;2095908;28;20021;-76
2023/12/09 00:52:25;;;;;;;70.32;38.25;;;2.50;99.90;;;;;;2094941;28;20425;-76
2023/12/09 00:53:25;;;;;;;72.55;39.25;;;2.50;99.90;;;;;;2076256;28;20642;-76
2023/12/09 00:54:27;;;;;;;64.63;37.03;;;2.50;99.90;;;;;;2090929;28;20494;-76
2023/12/09 00:55:27;;;;;;;69.50;38.00;;;2.50;99.90;;;;;;2095263;28;20047;-75
2023/12/09 00:56:28;;;;;;;71.15;39.65;;;2.50;99.90;;;;;;2083621;28;20037;-76
2023/12/09 00:57:29;;;;;;;69.28;38.08;;;2.50;99.90;;;;;;2091533;28;20036;-71
2023/12/09 00:58:29;;;;;;;64.75;36.58;;;2.50;99.90;;;;;;2095724;28;20020;-74
2023/12/09 00:59:30;;;;;;;62.88;36.00;;;2.50;99.90;;;;;;2092555;28;20029;-76
2023/12/09 01:00:30;;;;;;;68.30;37.25;;;2.50;99.90;;;;;;2096406;28;20033;-75
2023/12/09 01:01:33;;;;;;;65.78;37.60;;;2.50;99.90;;;;;;2095690;28;20061;-75
2023/12/09 01:02:33;;;;;;;66.15;36.85;;;2.60;99.90;;;;;;2091490;28;20111;-75
2023/12/09 01:03:34;;;;;;;65.55;37.28;;;2.60;99.90;;;;;;2096083;28;20371;-76
2023/12/09 01:04:35;;;;;;;69.15;38.08;;;2.60;99.90;;;;;;2096420;28;20277;-76
2023/12/09 01:05:35;;;;;;;66.00;37.15;;;2.60;99.90;;;;;;2092596;28;20032;-76
2023/12/09 01:06:36;;;;;;;81.00;43.53;;;2.50;99.90;;;;;;2095787;28;20090;-75
2023/12/09 01:07:36;;;;;;;75.68;40.95;;;2.50;99.90;;;;;;2095330;28;20034;-76
2023/12/09 01:08:37;;;;;;;67.90;37.75;;;2.60;99.90;;;;;;2097363;28;20028;-75
2023/12/09 01:09:37;;;;;;;67.38;37.55;;;2.60;99.90;;;;;;2091651;28;20016;-76
2023/12/09 01:10:38;;;;;;;62.58;35.80;;;2.60;99.90;;;;;;2092526;28;20024;-76
2023/12/09 01:11:39;;;;;;;66.13;36.60;;;2.60;99.90;;;;;;2095649;28;20038;-77
2023/12/09 01:12:39;;;;;;;66.88;37.55;;;2.60;99.90;;;;;;2091107;28;20028;-75
2023/12/09 01:13:40;;;;;;;67.10;36.38;;;2.60;99.90;;;;;;2094514;28;20067;-75
2023/12/09 01:14:40;;;;;;;66.13;38.08;;;2.60;99.90;;;;;;2095775;28;20032;-75
2023/12/09 01:15:41;;;;;;;65.95;36.58;;;2.60;99.90;;;;;;2093592;28;20049;-75
2023/12/09 01:16:41;;;;;;;64.10;36.88;;;2.60;99.90;;;;;;2095102;28;20025;-75
2023/12/09 01:17:42;;;;;;;69.40;38.03;;;2.60;99.90;;;;;;2096170;28;20440;-76
2023/12/09 01:18:43;;;;;;;82.75;41.83;;;2.60;99.90;;;;;;2093746;28;20536;-76
2023/12/09 01:19:43;;;;;;;69.00;38.42;;;2.60;99.90;;;;;;2094655;28;20103;-76
2023/12/09 01:20:44;;;;;;;74.00;38.88;;;2.60;99.90;;;;;;2096330;28;20027;-76
2023/12/09 01:21:44;;;;;;;73.47;39.95;;;2.60;99.90;;;;;;2093947;28;20020;-77
2023/12/09 01:22:45;;;;;;;77.20;40.35;;;2.60;99.90;;;;;;2094259;28;20055;-76
2023/12/09 01:23:46;;;;;;;82.80;43.13;;;2.60;99.90;;;;;;2096244;28;20058;-76
2023/12/09 01:24:46;;;;;;;74.03;39.33;;;2.60;99.90;;;;;;2093358;28;20037;-77
2023/12/09 01:25:47;;;;;;;76.72;40.10;;;2.60;99.90;;;;;;2083037;28;20109;-76
2023/12/09 01:26:47;;;;;;;70.78;37.83;;;2.60;99.90;;;;;;2093437;28;20028;-76
2023/12/09 01:27:48;;;;;;;73.13;39.83;;;2.60;99.90;;;;;;2101767;28;20448;-76
2023/12/09 01:28:48;;;;;;;70.60;38.80;;;2.60;99.90;;;;;;2093402;28;20526;-76
2023/12/09 01:29:49;;;;;;;73.40;40.03;;;2.60;99.90;;;;;;2095523;28;20104;-76
2023/12/09 01:30:49;;;;;;;67.60;37.28;;;2.60;99.90;;;;;;2092540;28;20032;-76
2023/12/09 01:31:50;;;;;;;71.60;39.15;;;2.60;99.90;;;;;;2090158;28;20349;-75
2023/12/09 01:32:50;;;;;;;73.65;39.40;;;2.60;99.90;;;;;;2093844;28;20024;-76
2023/12/09 01:33:51;;;;;;;68.35;37.88;;;2.60;99.90;;;;;;2096097;28;20344;-76
2023/12/09 01:34:51;;;;;;;72.95;40.10;;;2.60;99.90;;;;;;2093858;28;20036;-76
2023/12/09 01:35:52;;;;;;;74.75;39.95;;;2.60;99.90;;;;;;2092828;28;20036;-76
2023/12/09 01:36:54;;;;;;;68.10;36.65;;;2.60;99.90;;;;;;2096415;28;20475;-75
2023/12/09 01:37:54;;;;;;;66.03;35.83;;;2.60;99.90;;;;;;2091886;28;20024;-75
2023/12/09 01:38:55;;;;;;;65.18;36.75;;;2.70;99.90;;;;;;2088037;28;20108;-76
2023/12/09 01:39:55;;;;;;;68.88;37.03;;;2.60;99.90;;;;;;2095618;28;20039;-75
2023/12/09 01:40:56;;;;;;;66.07;37.13;;;2.60;99.90;;;;;;2094684;28;20040;-72
2023/12/09 01:41:57;;;;;;;68.75;37.10;;;2.70;99.90;;;;;;2092281;28;20136;-71
2023/12/09 01:42:57;;;;;;;74.85;40.22;;;2.70;99.90;;;;;;2095994;28;20054;-72
2023/12/09 01:43:58;;;;;;;77.80;40.35;;;2.70;99.90;;;;;;2086444;28;20059;-72
2023/12/09 01:44:58;;;;;;;77.38;41.13;;;2.60;99.90;;;;;;2083659;28;20036;-72
2023/12/09 01:46:05;;;;;;;74.20;40.00;;;2.60;99.90;;;;;;2096225;28;20490;-72
2023/12/09 01:47:07;;;;;;;84.15;43.17;;;2.70;99.90;;;;;;2095379;28;20043;-72
2023/12/09 01:48:08;;;;;;;72.32;39.53;;;2.70;99.90;;;;;;2091803;28;20040;-72
2023/12/09 01:49:10;;;;;;;68.63;38.00;;;2.60;99.90;;;;;;2095222;28;20024;-72
2023/12/09 01:50:11;;;;;;;76.70;40.17;;;2.60;99.90;;;;;;2095890;28;20040;-72
2023/12/09 01:51:12;;;;;;;74.22;38.85;;;2.70;99.90;;;;;;2093067;28;20317;-71
2023/12/09 01:52:13;;;;;;;85.13;43.45;;;2.70;99.90;;;;;;2095974;28;20643;-72
2023/12/09 01:53:14;;;;;;;74.18;40.22;;;2.70;99.90;;;;;;2094448;28;20067;-73
2023/12/09 01:54:15;;;;;;;79.53;40.90;;;2.70;99.90;;;;;;2095955;28;20044;-72
2023/12/09 01:55:16;;;;;;;75.93;40.28;;;2.70;99.90;;;;;;2093523;28;20059;-72
2023/12/09 01:56:20;;;;;;;73.30;39.95;;;2.70;99.90;;;;;;2094309;28;20038;-72
2023/12/09 01:57:20;;;;;;;68.00;38.22;;;2.70;99.90;;;;;;2096000;28;20085;-73
2023/12/09 01:58:21;;;;;;;68.13;36.92;;;2.70;99.90;;;;;;2094440;28;20024;-72
2023/12/09 01:59:22;;;;;;;67.32;36.80;;;2.70;99.90;;;;;;2093320;28;20394;-73
2023/12/09 02:00:23;;;;;;;64.20;35.42;;;2.80;99.90;;;;;;2091975;28;20477;-72
2023/12/09 02:01:25;;;;;;;65.50;36.40;;;2.80;99.90;;;;;;2095012;28;20139;-72
2023/12/09 02:02:25;;;;;;;71.03;38.05;;;2.70;99.90;;;;;;2094122;28;20032;-73
2023/12/09 02:03:26;;;;;;;69.65;38.47;;;2.70;99.90;;;;;;2084061;28;20426;-73
2023/12/09 02:04:27;;;;;;;70.18;38.75;;;2.80;99.90;;;;;;2083192;28;20048;-72
2023/12/09 02:05:27;;;;;;;69.28;38.42;;;2.80;99.90;;;;;;2095948;28;20047;-72
2023/12/09 02:06:28;;;;;;;72.65;38.72;;;2.80;99.90;;;;;;2092089;28;20078;-72
2023/12/09 02:07:28;;;;;;;69.57;37.60;;;2.70;99.90;;;;;;2091880;28;20028;-72
2023/12/09 02:08:29;;;;;;;68.60;38.13;;;2.80;99.90;;;;;;2095009;28;20033;-73
2023/12/09 02:09:29;;;;;;;66.53;36.85;;;2.80;99.90;;;;;;2090811;28;20046;-72
2023/12/09 02:10:30;;;;;;;67.00;36.40;;;2.80;99.90;;;;;;2092407;28;20029;-72
2023/12/09 02:11:49;;;;;;;67.93;38.00;;;2.80;99.90;;;;;;2094996;28;20056;-72
2023/12/09 02:12:56;;;;;;;65.72;36.85;;;2.80;99.90;;;;;;2086369;28;20567;-73
2023/12/09 02:14:04;;;;;;;67.20;36.92;;;2.70;99.90;;;;;;2087823;28;20079;-72
2023/12/09 02:15:18;;;;;;;71.70;38.50;;;2.70;99.90;;;;;;2081331;28;20064;-72
2023/12/09 02:16:27;;;;;;;65.20;35.15;;;2.70;99.90;;;;;;2082661;28;20025;-72
2023/12/09 02:17:42;;;;;;;67.20;36.88;;;2.70;99.90;;;;;;2095051;28;20454;-72
2023/12/09 02:18:44;;;;;;;64.13;35.30;;;2.80;99.90;;;;;;2091058;28;20107;-72
2023/12/09 02:19:45;;;;;;;65.95;36.55;;;2.80;99.90;;;;;;2095245;28;20125;-72
2023/12/09 02:20:45;;;;;;;66.28;36.75;;;2.70;99.90;;;;;;2092538;28;20032;-72
2023/12/09 02:22:18;;;;;;;64.20;36.00;;;2.80;99.90;;;;;;2093384;28;20020;-73
2023/12/09 02:23:19;;;;;;;69.82;36.17;;;2.80;99.90;;;;;;2073323;28;20022;-72
2023/12/09 02:24:19;;;;;;;69.10;37.50;;;2.80;99.90;;;;;;2084015;28;20037;-72
2023/12/09 02:25:20;;;;;;;76.57;39.30;;;2.80;99.90;;;;;;2086707;28;20096;-72
2023/12/09 02:26:26;;;;;;;68.03;37.90;;;2.80;99.90;;;;;;2089080;28;20033;-71
2023/12/09 02:27:51;;;;;;;74.90;39.28;;;2.70;99.90;;;;;;2092981;28;20032;-72
2023/12/09 02:29:02;;;;;;;66.50;35.65;;;2.70;99.90;;;;;;2090192;28;20020;-72
2023/12/09 02:30:13;;;;;;;64.93;35.35;;;2.70;99.90;;;;;;2095906;28;20089;-72
2023/12/09 02:31:22;;;;;;;66.63;37.30;;;2.70;99.90;;;;;;2089795;28;20036;-71
2023/12/09 02:32:25;;;;;;;70.47;37.75;;;2.80;99.90;;;;;;2089893;28;20539;-72
2023/12/09 02:33:28;;;;;;;66.40;36.80;;;2.80;99.90;;;;;;2094483;28;20047;-71
2023/12/09 02:34:31;;;;;;;71.38;37.88;;;2.80;99.90;;;;;;2092414;28;20039;-71
2023/12/09 02:35:35;;;;;;;70.88;38.28;;;2.80;99.90;;;;;;2094887;28;20048;-72
2023/12/09 02:36:37;;;;;;;70.25;38.03;;;2.70;99.90;;;;;;2091170;28;20024;-72
2023/12/09 02:37:38;;;;;;;64.20;36.10;;;2.70;99.90;;;;;;2091171;28;20029;-71
2023/12/09 02:38:39;;;;;;;66.63;36.45;;;2.80;99.90;;;;;;2090869;28;20052;-71
2023/12/09 02:39:41;;;;;;;63.65;35.35;;;2.70;99.90;;;;;;2095057;28;20241;-71
2023/12/09 02:40:42;;;;;;;66.72;36.00;;;2.80;99.90;;;;;;2083676;28;20028;-72
2023/12/09 02:41:44;;;;;;;64.00;35.08;;;2.80;99.90;;;;;;2094010;28;20056;-72
2023/12/09 02:42:46;;;;;;;64.78;35.92;;;2.80;99.90;;;;;;2091581;28;20351;-72
2023/12/09 02:43:47;;;;;;;66.65;35.85;;;2.80;99.90;;;;;;2082799;28;20079;-72
2023/12/09 02:44:49;;;;;;;63.05;35.35;;;2.80;99.90;;;;;;2092574;28;20244;-72
2023/12/09 02:45:49;;;;;;;64.57;35.80;;;2.80;99.90;;;;;;2092760;28;20024;-72
2023/12/09 02:46:56;;;;;;;67.30;36.58;;;2.80;99.90;;;;;;2094816;28;20489;-71
2023/12/09 02:47:57;;;;;;;66.95;36.50;;;2.80;99.90;;;;;;2094632;28;20440;-72
2023/12/09 02:49:00;;;;;;;68.10;35.67;;;2.80;99.90;;;;;;2092221;28;20025;-72
2023/12/09 02:50:01;;;;;;;64.78;35.72;;;2.80;99.90;;;;;;2094661;28;20440;-72
2023/12/09 02:51:01;;;;;;;66.25;35.70;;;2.80;99.90;;;;;;2094504;28;20043;-72
2023/12/09 02:52:02;;;;;;;64.22;34.95;;;2.80;99.90;;;;;;2090941;28;20036;-73
2023/12/09 02:53:03;;;;;;;64.15;35.38;;;2.80;99.90;;;;;;2086505;28;20048;-72
2023/12/09 02:54:03;;;;;;;64.43;35.42;;;2.80;99.90;;;;;;2094837;28;20047;-72
2023/12/09 02:55:05;;;;;;;65.50;35.55;;;2.80;99.90;;;;;;2090459;28;20073;-73
2023/12/09 02:56:06;;;;;;;64.05;35.25;;;2.80;99.90;;;;;;2094836;28;20501;-73
2023/12/09 02:57:06;;;;;;;65.93;35.88;;;2.80;99.90;;;;;;2091260;28;20391;-73
2023/12/09 02:58:07;;;;;;;65.20;35.00;;;2.80;99.90;;;;;;2090651;28;20208;-73
2023/12/09 02:59:08;;;;;;;67.80;36.15;;;2.80;99.90;;;;;;2094777;28;20032;-73
2023/12/09 03:00:09;;;;;;;63.65;35.33;;;2.80;99.90;;;;;;2091228;28;20089;-73
2023/12/09 03:01:10;;;;;;;67.00;36.85;;;2.80;99.90;;;;;;2095030;28;20043;-73
2023/12/09 03:02:10;;;;;;;64.43;36.60;;;2.80;99.90;;;;;;2092988;28;20058;-73
2023/12/09 03:03:11;;;;;;;64.82;35.38;;;2.80;99.90;;;;;;2090700;28;20040;-73
2023/12/09 03:04:11;;;;;;;65.55;36.17;;;2.80;99.90;;;;;;2091580;28;20569;-72
2023/12/09 03:05:12;;;;;;;63.80;35.72;;;2.80;99.90;;;;;;2090760;28;20417;-72
2023/12/09 03:06:12;;;;;;;68.95;36.75;;;2.80;99.90;;;;;;2086081;28;20040;-72
2023/12/09 03:07:13;;;;;;;66.18;35.65;;;2.80;99.90;;;;;;2075252;28;20041;-72
2023/12/09 03:08:13;;;;;;;65.47;35.88;;;2.80;99.90;;;;;;2092679;28;20128;-72
2023/12/09 03:09:14;;;;;;;68.00;36.97;;;2.80;99.90;;;;;;2084932;28;20390;-72
2023/12/09 03:10:14;;;;;;;66.30;35.97;;;2.80;99.90;;;;;;2068911;28;20044;-72
2023/12/09 03:11:15;;;;;;;67.30;36.72;;;2.80;99.90;;;;;;2085978;28;20036;-72
2023/12/09 03:12:16;;;;;;;68.20;36.90;;;2.80;99.90;;;;;;2077905;28;20088;-72
2023/12/09 03:13:16;;;;;;;71.20;38.10;;;2.80;99.90;;;;;;2077132;28;20034;-71
2023/12/09 03:14:17;;;;;;;70.57;37.17;;;2.80;99.90;;;;;;2086143;28;20063;-72
2023/12/09 03:15:18;;;;;;;70.45;37.47;;;2.70;99.90;;;;;;2083892;28;20045;-71
2023/12/09 03:16:18;;;;;;;71.25;38.25;;;2.70;99.90;;;;;;2093106;28;20032;-72
2023/12/09 03:17:19;;;;;;;71.28;37.42;;;2.70;99.90;;;;;;2090145;28;20367;-72
2023/12/09 03:18:19;;;;;;;68.07;35.95;;;2.70;99.90;;;;;;2090675;28;20050;-72
2023/12/09 03:19:20;;;;;;;68.93;37.05;;;2.70;99.90;;;;;;2093409;28;20485;-72
2023/12/09 03:20:20;;;;;;;67.95;36.50;;;2.70;99.90;;;;;;2092796;28;20029;-71
2023/12/09 03:21:21;;;;;;;66.43;36.15;;;2.70;99.90;;;;;;2091553;28;20523;-72
2023/12/09 03:22:22;;;;;;;71.68;37.55;;;2.70;99.90;;;;;;2093112;28;20518;-72
2023/12/09 03:23:22;;;;;;;70.53;38.38;;;2.70;99.90;;;;;;2093308;28;20457;-74
2023/12/09 03:24:23;;;;;;;68.38;36.60;;;2.70;99.90;;;;;;2095033;28;20024;-72
2023/12/09 03:25:23;;;;;;;71.80;37.28;;;2.70;99.90;;;;;;2094356;28;20029;-72
2023/12/09 03:26:25;;;;;;;71.45;36.90;;;2.70;99.90;;;;;;2092316;28;20383;-72
2023/12/09 03:27:25;;;;;;;70.32;36.95;;;2.80;99.90;;;;;;2094412;28;20030;-72
2023/12/09 03:28:26;;;;;;;68.25;37.15;;;2.80;99.90;;;;;;2093740;28;20890;-73
2023/12/09 03:29:26;;;;;;;70.25;37.15;;;2.80;99.90;;;;;;2092995;28;20039;-73
2023/12/09 03:30:27;;;;;;;70.78;37.47;;;2.80;99.90;;;;;;2095086;28;20398;-73
2023/12/09 03:31:27;;;;;;;71.45;37.58;;;2.70;99.90;;;;;;2094615;28;20037;-73
2023/12/09 03:32:28;;;;;;;69.70;37.22;;;2.70;99.90;;;;;;2089334;28;20498;-72
2023/12/09 03:33:28;;;;;;;71.72;37.67;;;2.70;99.90;;;;;;2088820;28;20016;-72
2023/12/09 03:34:29;;;;;;;73.25;38.80;;;2.70;99.90;;;;;;2094505;28;20074;-72
2023/12/09 03:35:29;;;;;;;70.75;36.83;;;2.70;99.90;;;;;;2093733;28;20024;-72
2023/12/09 03:36:30;;;;;;;71.75;37.95;;;2.70;99.90;;;;;;2091430;28;20055;-74
2023/12/09 03:37:31;;;;;;;68.13;37.38;;;2.70;99.90;;;;;;2094915;28;20506;-73
2023/12/09 03:38:31;;;;;;;68.13;36.78;;;2.70;99.90;;;;;;2091513;28;20028;-72
2023/12/09 03:39:32;;;;;;;72.07;37.97;;;2.70;99.90;;;;;;2090582;28;20036;-72
2023/12/09 03:40:32;;;;;;;72.07;38.00;;;2.70;99.90;;;;;;2094622;28;20024;-72
2023/12/09 03:41:33;;;;;;;70.75;37.65;;;2.70;99.90;;;;;;2094954;28;20582;-72
2023/12/09 03:42:34;;;;;;;72.80;38.60;;;2.70;99.90;;;;;;2095362;28;20090;-73
2023/12/09 03:43:35;;;;;;;73.53;38.20;;;2.70;99.90;;;;;;2091704;28;20108;-72
2023/12/09 03:44:35;;;;;;;72.95;38.20;;;2.70;99.90;;;;;;2094735;28;20028;-72
2023/12/09 03:45:36;;;;;;;76.18;39.83;;;2.70;99.90;;;;;;2094463;28;20024;-72
2023/12/09 03:46:36;;;;;;;74.07;39.40;;;2.70;99.90;;;;;;2099150;28;20024;-78
2023/12/09 03:47:37;;;;;;;72.82;38.00;;;2.70;99.90;;;;;;2094652;28;20028;-76
2023/12/09 03:48:38;;;;;;;73.05;37.88;;;2.70;99.90;;;;;;2090765;28;20037;-78
2023/12/09 03:49:38;;;;;;;69.90;37.40;;;2.70;99.90;;;;;;2090845;28;20029;-73
2023/12/09 03:50:39;;;;;;;71.38;37.25;;;2.70;99.90;;;;;;2095424;28;20059;-73
2023/12/09 03:51:39;;;;;;;69.35;37.38;;;2.70;99.90;;;;;;2093504;28;20378;-72
2023/12/09 03:52:40;;;;;;;71.13;37.60;;;2.70;99.90;;;;;;2094357;28;20046;-73
2023/12/09 03:53:41;;;;;;;72.85;38.05;;;2.70;99.90;;;;;;2091532;28;20024;-72
2023/12/09 03:54:42;;;;;;;75.25;37.78;;;2.70;99.90;;;;;;2094243;28;20043;-72
2023/12/09 03:55:42;;;;;;;72.10;37.17;;;2.70;99.90;;;;;;2094567;28;20035;-72
2023/12/09 03:56:44;;;;;;;71.10;37.88;;;2.70;99.90;;;;;;2091906;28;20029;-73
2023/12/09 03:57:45;;;;;;;70.28;36.72;;;2.70;99.90;;;;;;2094222;28;20052;-73
2023/12/09 03:58:45;;;;;;;69.47;37.15;;;2.70;99.90;;;;;;2090413;28;20039;-71
2023/12/09 03:59:46;;;;;;;70.03;37.40;;;2.70;99.90;;;;;;2083156;28;20025;-72
2023/12/09 04:00:46;;;;;;;68.95;36.42;;;2.70;99.90;;;;;;2093465;28;20024;-72
2023/12/09 04:01:48;;;;;;;67.18;36.42;;;2.70;99.90;;;;;;2094239;28;20529;-72
2023/12/09 04:02:49;;;;;;;72.18;37.47;;;2.70;99.90;;;;;;2083357;28;20025;-72
2023/12/09 04:03:49;;;;;;;72.57;37.42;;;2.70;99.90;;;;;;2093068;28;20872;-72
2023/12/09 04:04:50;;;;;;;71.18;37.80;;;2.70;99.90;;;;;;2094368;28;20110;-72
2023/12/09 04:05:51;;;;;;;70.07;38.20;;;2.70;99.90;;;;;;2092518;28;20494;-72
2023/12/09 04:06:51;;;;;;;71.72;37.60;;;2.70;99.90;;;;;;2093867;28;20041;-73
2023/12/09 04:07:52;;;;;;;68.68;36.00;;;2.70;99.90;;;;;;2093971;28;20033;-73
2023/12/09 04:08:52;;;;;;;70.82;37.72;;;2.70;99.90;;;;;;2094250;28;20398;-73
2023/12/09 04:09:53;;;;;;;72.47;37.85;;;2.70;99.90;;;;;;2092402;28;20074;-73
2023/12/09 04:10:53;;;;;;;69.35;37.50;;;2.70;99.90;;;;;;2093431;28;20036;-73
2023/12/09 04:11:54;;;;;;;67.78;37.15;;;2.70;99.90;;;;;;2094574;28;20031;-73
2023/12/09 04:12:55;;;;;;;69.88;37.38;;;2.70;99.90;;;;;;2092609;28;20083;-72
2023/12/09 04:13:55;;;;;;;73.15;37.65;;;2.70;99.90;;;;;;2092954;28;20028;-73
2023/12/09 04:14:57;;;;;;;70.80;37.70;;;2.70;99.90;;;;;;2094469;28;20496;-72
2023/12/09 04:15:57;;;;;;;70.82;36.45;;;2.70;99.90;;;;;;2092959;28;20048;-72
2023/12/09 04:16:58;;;;;;;71.35;36.88;;;2.70;99.90;;;;;;2087733;28;20096;-72
2023/12/09 04:17:59;;;;;;;70.57;36.95;;;2.60;99.90;;;;;;2094967;28;20035;-72
2023/12/09 04:18:59;;;;;;;71.65;37.75;;;2.60;99.90;;;;;;2093013;28;20394;-72
2023/12/09 04:20:00;;;;;;;71.30;36.95;;;2.60;99.90;;;;;;2090261;28;20560;-72
2023/12/09 04:21:00;;;;;;;68.22;36.42;;;2.60;99.90;;;;;;2090751;28;20025;-72
2023/12/09 04:22:01;;;;;;;70.97;37.15;;;2.60;99.90;;;;;;2092070;28;20036;-72
2023/12/09 04:23:01;;;;;;;71.45;37.17;;;2.60;99.90;;;;;;2091143;28;20060;-72
2023/12/09 04:24:02;;;;;;;71.75;36.90;;;2.70;99.90;;;;;;2090620;28;20051;-72
2023/12/09 04:25:04;;;;;;;72.43;38.40;;;2.70;99.90;;;;;;2093538;28;20028;-73
2023/12/09 04:26:05;;;;;;;70.97;37.15;;;2.70;99.90;;;;;;2095117;28;20032;-73
2023/12/09 04:27:06;;;;;;;72.20;37.67;;;2.60;99.90;;;;;;2092394;28;20028;-72
2023/12/09 04:28:07;;;;;;;72.22;37.47;;;2.70;99.90;;;;;;2095457;28;20533;-72
2023/12/09 04:29:08;;;;;;;70.47;37.15;;;2.70;99.90;;;;;;2094200;28;20026;-73
2023/12/09 04:30:09;;;;;;;74.55;38.03;;;2.70;99.90;;;;;;2092684;28;20494;-72
2023/12/09 04:31:10;;;;;;;71.32;37.53;;;2.70;99.90;;;;;;2092130;28;20043;-71
2023/12/09 04:32:10;;;;;;;73.13;37.60;;;2.70;99.90;;;;;;2093926;28;20047;-72
2023/12/09 04:33:11;;;;;;;73.95;38.30;;;2.60;99.90;;;;;;2093345;28;20036;-72
2023/12/09 04:34:11;;;;;;;69.57;36.40;;;2.60;99.90;;;;;;2095863;28;20127;-72
2023/12/09 04:35:12;;;;;;;71.15;37.38;;;2.60;99.90;;;;;;2086602;28;20162;-72
2023/12/09 04:36:13;;;;;;;67.90;37.03;;;2.60;99.90;;;;;;2083638;28;20025;-72
2023/12/09 04:37:14;;;;;;;70.72;37.58;;;2.70;99.90;;;;;;2095841;28;20024;-73
2023/12/09 04:38:14;;;;;;;71.25;37.17;;;2.60;99.90;;;;;;2092382;28;20021;-72
2023/12/09 04:39:15;;;;;;;68.75;36.92;;;2.70;99.90;;;;;;2084564;28;20036;-73
2023/12/09 04:40:15;;;;;;;72.05;37.22;;;2.70;99.90;;;;;;2095560;28;20554;-72
2023/12/09 04:41:16;;;;;;;68.43;36.40;;;2.70;99.90;;;;;;2091387;28;20409;-73
2023/12/09 04:42:18;;;;;;;72.25;37.47;;;2.60;99.90;;;;;;2091202;28;20551;-72
2023/12/09 04:43:18;;;;;;;69.70;37.03;;;2.60;99.90;;;;;;2088580;28;20055;-73
2023/12/09 04:44:19;;;;;;;70.47;36.15;;;2.70;99.90;;;;;;2087921;28;20040;-73
2023/12/09 04:45:19;;;;;;;70.07;37.97;;;2.60;99.90;;;;;;2079246;28;20025;-73
2023/12/09 04:46:20;;;;;;;69.80;37.05;;;2.60;99.90;;;;;;2083725;28;20456;-73
2023/12/09 04:47:21;;;;;;;70.80;36.47;;;2.60;99.90;;;;;;2103461;28;20486;-72
2023/12/09 04:48:21;;;;;;;68.60;36.60;;;2.60;99.90;;;;;;2103409;28;20505;-73
2023/12/09 04:49:22;;;;;;;70.32;37.65;;;2.60;99.90;;;;;;2093900;28;20430;-73
2023/12/09 04:50:23;;;;;;;70.78;37.22;;;2.60;99.90;;;;;;2092217;28;20036;-73
2023/12/09 04:51:23;;;;;;;70.03;36.88;;;2.60;99.90;;;;;;2085228;28;20302;-73
2023/12/09 04:52:24;;;;;;;71.50;37.15;;;2.60;99.90;;;;;;2092264;28;20040;-73
2023/12/09 04:53:24;;;;;;;70.30;37.08;;;2.60;99.90;;;;;;2093788;28;20020;-71
2023/12/09 04:54:25;;;;;;;72.72;38.25;;;2.60;99.90;;;;;;2094466;28;20151;-72
2023/12/09 04:55:26;;;;;;;68.63;35.67;;;2.60;99.90;;;;;;2087317;28;20032;-72
2023/12/09 04:56:27;;;;;;;67.50;36.38;;;2.60;99.90;;;;;;2084331;28;20021;-72
2023/12/09 04:57:27;;;;;;;68.63;36.00;;;2.60;99.90;;;;;;2094341;28;20028;-72
2023/12/09 04:58:28;;;;;;;67.65;36.53;;;2.60;99.90;;;;;;2087298;28;20029;-72
2023/12/09 04:59:29;;;;;;;71.70;38.17;;;2.60;99.90;;;;;;2093179;28;20478;-72
2023/12/09 05:00:29;;;;;;;70.30;37.53;;;2.60;99.90;;;;;;2093893;28;20029;-72
2023/12/09 05:01:30;;;;;;;72.97;38.30;;;2.60;99.90;;;;;;2095591;28;20021;-72
2023/12/09 05:02:30;;;;;;;70.63;37.53;;;2.60;99.90;;;;;;2093544;28;20097;-72
2023/12/09 05:03:31;;;;;;;74.18;38.05;;;2.70;99.90;;;;;;2093640;28;20078;-72
2023/12/09 05:04:31;;;;;;;73.13;38.97;;;2.60;99.90;;;;;;2095742;28;20024;-72
2023/12/09 05:05:32;;;;;;;69.35;36.05;;;2.60;99.90;;;;;;2094380;28;20025;-72
2023/12/09 05:06:32;;;;;;;70.80;38.03;;;2.60;99.90;;;;;;2094359;28;20086;-72
2023/12/09 05:07:33;;;;;;;72.32;37.80;;;2.70;99.90;;;;;;2095458;28;20099;-71
2023/12/09 05:08:34;;;;;;;71.03;38.13;;;2.70;99.90;;;;;;2097512;28;20024;-72
2023/12/09 05:09:34;;;;;;;72.53;39.42;;;2.70;99.90;;;;;;2094124;28;20044;-72
2023/12/09 05:10:35;;;;;;;71.00;38.53;;;2.70;99.90;;;;;;2092292;28;20116;-72
2023/12/09 05:11:35;;;;;;;75.80;41.03;;;2.70;99.90;;;;;;2092508;28;20924;-72
2023/12/09 05:12:36;;;;;;;75.40;40.47;;;2.70;99.90;;;;;;2088114;28;20091;-72
2023/12/09 05:13:37;;;;;;;73.78;39.83;;;2.70;99.90;;;;;;2087253;28;20533;-72
2023/12/09 05:14:37;;;;;;;70.00;37.65;;;2.70;99.90;;;;;;2084640;28;20086;-72